createdAt,value
2023-04-07T12:05:19.961Z,57.48
2023-04-07T12:06:19.512Z,57.77
2023-04-07T12:08:13.197Z,58.15
2023-04-07T12:09:13.926Z,58.25
2023-04-07T12:13:12.400Z,59.06
2023-04-07T12:14:11.040Z,59.44
2023-04-07T12:21:41.925Z,60.89
2023-04-07T12:22:39.690Z,61.63
2023-04-07T12:23:39.769Z,61.43
2023-04-07T12:24:39.673Z,61.53
2023-04-07T12:25:40.061Z,61.24
2023-04-07T12:26:39.551Z,61.34
2023-04-07T12:27:42.839Z,61.34
2023-04-07T12:28:39.518Z,61.82
2023-04-07T12:29:39.523Z,61.72
2023-04-07T12:30:39.497Z,61.72
2023-04-07T12:31:39.498Z,61.91
2023-04-07T12:32:39.488Z,61.53
2023-04-07T12:33:39.466Z,61.56
2023-04-07T12:34:39.488Z,61.27
2023-04-07T12:35:39.474Z,60.82
2023-04-07T12:36:39.429Z,60.53
2023-04-07T12:37:39.409Z,60.05
2023-04-07T12:38:39.497Z,59.96
2023-04-07T12:39:39.392Z,59.67
2023-04-07T12:40:39.379Z,59.61
2023-04-07T12:41:39.359Z,59.61
2023-04-07T12:42:39.354Z,59.12
2023-04-07T12:43:39.329Z,59.06
2023-04-07T12:44:39.324Z,58.96
2023-04-07T12:45:39.332Z,58.89
2023-04-07T12:46:39.316Z,58.80
2023-04-07T12:47:39.308Z,58.13
2023-04-07T12:48:39.270Z,58.03
2023-04-07T12:49:39.263Z,57.93
2023-04-07T12:50:39.259Z,58.22
2023-04-07T12:51:39.230Z,58.06
2023-04-07T12:52:39.226Z,57.87
2023-04-07T12:53:39.212Z,57.73
2023-04-07T12:54:39.199Z,56.99
2023-04-07T12:55:39.189Z,55.79
2023-04-07T12:56:39.168Z,54.50
2023-04-07T12:57:39.176Z,53.81
2023-04-07T12:58:39.174Z,52.22
2023-04-07T12:59:39.136Z,51.30
2023-04-07T13:00:39.123Z,51.06
2023-04-07T13:01:39.151Z,50.60
2023-04-07T13:02:39.232Z,49.49
2023-04-07T13:03:39.236Z,48.73
2023-04-07T13:04:39.170Z,48.85
2023-04-07T13:05:39.082Z,48.49
2023-04-07T13:06:39.065Z,48.20
2023-04-07T13:07:39.041Z,47.81
2023-04-07T13:08:39.044Z,47.93
2023-04-07T13:09:39.030Z,48.22
2023-04-07T13:10:39.012Z,48.47
2023-04-07T13:11:39.000Z,48.35
2023-04-07T13:12:38.995Z,49.39
2023-04-07T13:13:38.993Z,49.92
2023-04-07T13:14:49.365Z,50.50
2023-04-07T13:15:38.963Z,50.57
2023-04-07T13:16:38.985Z,50.96
2023-04-07T13:17:38.975Z,50.41
2023-04-07T13:18:38.941Z,49.82
2023-04-07T13:19:38.936Z,49.46
2023-04-07T13:20:38.920Z,49.15
2023-04-07T13:21:45.218Z,49.54
2023-04-07T13:22:48.547Z,50.09
2023-04-07T13:23:43.254Z,50.07
2023-04-07T13:24:38.885Z,50.65
2023-04-07T13:25:38.876Z,50.65
2023-04-07T13:26:38.866Z,50.07
2023-04-07T13:27:38.850Z,49.58
2023-04-07T13:28:38.945Z,49.61
2023-04-07T13:29:38.843Z,49.19
2023-04-07T13:30:38.855Z,49.27
2023-04-07T13:31:38.820Z,49.73
2023-04-07T13:32:38.843Z,50.40
2023-04-07T13:33:38.792Z,50.86
2023-04-07T13:34:38.792Z,51.15
2023-04-07T13:35:38.802Z,51.29
2023-04-07T13:36:38.773Z,51.56
2023-04-07T13:37:38.756Z,52.43
2023-04-07T13:38:38.752Z,52.31
2023-04-07T13:39:38.737Z,52.47
2023-04-07T13:40:38.754Z,53.13
2023-04-07T13:41:38.734Z,53.58
2023-04-07T13:42:38.712Z,53.55
2023-04-07T13:43:38.719Z,54.10
2023-04-07T13:44:38.697Z,54.68
2023-04-07T13:45:38.683Z,54.65
2023-04-07T13:46:38.699Z,54.56
2023-04-07T13:47:38.700Z,54.56
2023-04-07T13:48:38.653Z,54.65
2023-04-07T13:49:38.653Z,54.46
2023-04-07T13:50:38.639Z,54.65
2023-04-07T13:51:38.623Z,53.98
2023-04-07T13:52:38.623Z,53.91
2023-04-07T13:53:38.611Z,53.65
2023-04-07T13:54:38.646Z,52.59
2023-04-07T13:55:38.599Z,52.71
2023-04-07T13:56:38.570Z,52.52
2023-04-07T13:57:38.570Z,52.69
2023-04-07T13:58:38.553Z,52.30
2023-04-07T13:59:38.545Z,52.75
2023-04-07T14:00:38.534Z,53.33
2023-04-07T14:01:38.626Z,53.43
2023-04-07T14:02:38.693Z,53.33
2023-04-07T14:03:38.838Z,53.33
2023-04-07T14:04:38.622Z,52.78
2023-04-07T14:05:38.474Z,52.42
2023-04-07T14:06:38.477Z,52.23
2023-04-07T14:07:38.453Z,52.13
2023-04-07T14:08:38.443Z,51.58
2023-04-07T14:09:38.450Z,51.20
2023-04-07T14:10:38.423Z,51.10
2023-04-07T14:11:38.437Z,51.58
2023-04-07T14:12:38.398Z,50.90
2023-04-07T14:13:38.390Z,51.20
2023-04-07T14:14:38.379Z,51.48
2023-04-07T14:15:38.377Z,51.20
2023-04-07T14:16:38.358Z,51.00
2023-04-07T14:17:38.409Z,50.90
2023-04-07T14:18:38.335Z,50.90
2023-04-07T14:19:38.328Z,50.98
2023-04-07T14:20:38.315Z,51.17
2023-04-07T14:21:38.304Z,51.56
2023-04-07T14:22:38.302Z,51.53
2023-04-07T14:23:38.285Z,51.79
2023-04-07T14:24:38.270Z,51.96
2023-04-07T14:25:38.268Z,52.44
2023-04-07T14:26:38.248Z,53.09
2023-04-07T14:27:38.237Z,52.58
2023-04-07T14:28:38.240Z,52.68
2023-04-07T14:29:38.221Z,53.54
2023-04-07T14:30:38.216Z,53.13
2023-04-07T14:31:38.219Z,53.42
2023-04-07T14:32:38.200Z,53.68
2023-04-07T14:33:38.170Z,53.78
2023-04-07T14:34:38.159Z,54.23
2023-04-07T14:35:38.237Z,54.49
2023-04-07T14:36:38.138Z,54.88
2023-04-07T14:37:38.129Z,54.97
2023-04-07T14:38:38.125Z,55.26
2023-04-07T14:39:38.128Z,55.35
2023-04-07T14:40:38.120Z,54.78
2023-04-07T14:41:38.084Z,55.26
2023-04-07T14:42:38.072Z,54.78
2023-04-07T14:43:38.057Z,55.16
2023-04-07T14:44:38.046Z,55.13
2023-04-07T14:45:38.042Z,54.85
2023-04-07T14:46:38.110Z,55.33
2023-04-07T14:47:38.024Z,55.01
2023-04-07T14:48:37.997Z,55.30
2023-04-07T14:49:37.997Z,55.87
2023-04-07T14:50:37.985Z,55.65
2023-04-07T14:51:37.968Z,55.94
2023-04-07T14:52:37.961Z,56.42
2023-04-07T14:53:37.952Z,56.61
2023-04-07T14:54:37.926Z,56.04
2023-04-07T14:55:37.930Z,55.85
2023-04-07T14:56:37.907Z,56.04
2023-04-07T14:57:37.897Z,55.94
2023-04-07T14:58:37.878Z,56.04
2023-04-07T14:59:37.871Z,56.13
2023-04-07T15:00:37.859Z,55.94
2023-04-07T15:01:38.028Z,55.11
2023-04-07T15:02:38.140Z,54.91
2023-04-07T15:03:38.036Z,54.37
2023-04-07T15:04:37.869Z,54.37
2023-04-07T15:05:37.792Z,53.99
2023-04-07T15:06:37.780Z,54.56
2023-04-07T15:07:37.771Z,54.46
2023-04-07T15:08:37.765Z,54.11
2023-04-07T15:09:37.746Z,53.72
2023-04-07T15:10:37.735Z,53.63
2023-04-07T15:11:37.723Z,53.82
2023-04-07T15:12:37.712Z,54.01
2023-04-07T15:13:37.716Z,54.08
2023-04-07T15:14:37.680Z,54.46
2023-04-07T15:15:37.680Z,54.56
2023-04-07T15:16:37.765Z,54.46
2023-04-07T15:17:44.578Z,54.82
2023-04-07T15:18:37.631Z,55.18
2023-04-07T15:19:37.626Z,55.65
2023-04-07T15:20:37.614Z,55.85
2023-04-07T15:21:37.606Z,55.56
2023-04-07T15:22:37.587Z,55.85
2023-04-07T15:23:37.586Z,55.85
2023-04-07T15:24:37.581Z,55.75
2023-04-07T15:25:37.547Z,55.56
2023-04-07T15:26:37.530Z,55.75
2023-04-07T15:27:37.520Z,55.65
2023-04-07T15:28:37.513Z,55.36
2023-04-07T15:29:37.512Z,54.91
2023-04-07T15:30:37.494Z,54.91
2023-04-07T15:31:37.530Z,54.82
2023-04-07T15:32:37.494Z,54.82
2023-04-07T15:33:37.450Z,54.70
2023-04-07T15:34:37.436Z,55.21
2023-04-07T15:35:37.495Z,55.01
2023-04-07T15:36:37.409Z,54.91
2023-04-07T15:37:37.391Z,55.01
2023-04-07T15:38:37.377Z,54.63
2023-04-07T15:41:22.208Z,54.63
2023-04-07T15:42:20.054Z,55.27
2023-04-07T15:44:25.866Z,55.75
2023-04-07T15:45:25.856Z,55.56
2023-04-07T15:47:31.076Z,55.94
2023-04-07T15:48:31.260Z,55.94
2023-04-07T15:50:37.828Z,55.65
2023-04-07T15:51:37.745Z,55.53
2023-04-07T15:53:43.186Z,55.82
2023-04-07T15:54:43.219Z,56.10
2023-04-07T15:56:47.181Z,56.39
2023-04-07T15:57:47.079Z,56.65
2023-04-07T15:59:52.281Z,56.59
2023-04-07T16:00:52.325Z,56.39
2023-04-07T16:02:58.301Z,55.91
2023-04-07T16:03:57.860Z,55.63
2023-04-07T16:06:02.134Z,55.73
2023-04-07T16:07:01.785Z,55.73
2023-04-07T16:09:07.546Z,56.08
2023-04-07T16:10:07.259Z,57.01
2023-04-07T16:12:12.987Z,57.65
2023-04-07T16:13:12.993Z,57.93
2023-04-07T16:15:32.390Z,58.58
2023-04-07T16:16:18.557Z,58.95
2023-04-07T16:18:12.802Z,59.31
2023-04-07T16:19:12.877Z,59.02
2023-04-07T16:21:18.224Z,58.70
2023-04-07T16:22:18.157Z,59.38
2023-04-07T16:24:23.544Z,59.47
2023-04-07T16:25:23.557Z,59.82
2023-04-07T16:26:23.269Z,59.73
2023-04-07T16:27:23.264Z,60.02
2023-04-07T16:28:23.610Z,59.73
2023-04-07T16:29:23.192Z,59.82
2023-04-07T16:30:23.181Z,59.92
2023-04-07T16:31:23.194Z,59.47
2023-04-07T16:32:23.183Z,59.56
2023-04-07T16:33:24.742Z,59.19
2023-04-07T16:34:23.125Z,58.99
2023-04-07T16:35:23.110Z,58.93
2023-04-07T16:36:23.262Z,58.93
2023-04-07T16:37:23.093Z,58.36
2023-04-07T16:38:23.101Z,58.26
2023-04-07T16:39:24.811Z,58.64
2023-04-07T16:40:23.051Z,57.97
2023-04-07T16:41:23.032Z,57.97
2023-04-07T16:42:23.019Z,57.97
2023-04-07T16:43:23.029Z,58.36
2023-04-07T16:44:23.027Z,58.45
2023-04-07T16:45:23.000Z,58.64
2023-04-07T16:46:23.013Z,58.36
2023-04-07T16:47:22.973Z,58.45
2023-04-07T16:48:22.938Z,58.73
2023-04-07T16:49:22.928Z,58.90
2023-04-07T16:50:22.912Z,58.99
2023-04-07T16:51:22.899Z,58.97
2023-04-07T16:52:22.974Z,59.16
2023-04-07T16:53:22.875Z,59.34
2023-04-07T16:54:22.857Z,59.44
2023-04-07T16:55:22.853Z,59.82
2023-04-07T16:56:22.839Z,60.11
2023-04-07T16:57:22.822Z,60.02
2023-04-07T16:58:22.812Z,59.63
2023-04-07T16:59:22.790Z,59.70
2023-04-07T17:00:22.785Z,59.70
2023-04-07T17:01:22.792Z,60.17
2023-04-07T17:02:22.989Z,60.27
2023-04-07T17:03:22.891Z,59.99
2023-04-07T17:04:22.776Z,60.55
2023-04-07T17:05:22.711Z,60.52
2023-04-07T17:06:22.690Z,60.72
2023-04-07T17:07:22.674Z,60.81
2023-04-07T17:08:22.665Z,61.10
2023-04-07T17:09:22.641Z,60.81
2023-04-07T17:10:22.647Z,60.46
2023-04-07T17:11:22.619Z,60.46
2023-04-07T17:12:22.635Z,59.99
2023-04-07T17:13:22.598Z,60.17
2023-04-07T17:14:22.578Z,59.89
2023-04-07T17:15:22.560Z,59.79
2023-04-07T17:16:22.632Z,59.82
2023-04-07T17:17:22.547Z,59.60
2023-04-07T17:18:22.518Z,59.41
2023-04-07T17:19:22.511Z,59.41
2023-04-07T17:20:22.512Z,59.70
2023-04-07T17:21:22.472Z,59.70
2023-04-07T17:22:22.463Z,59.70
2023-04-07T17:23:22.446Z,59.60
2023-04-07T17:24:22.441Z,59.53
2023-04-07T17:25:22.418Z,59.53
2023-04-07T17:26:22.406Z,59.82
2023-04-07T17:27:22.390Z,59.82
2023-04-07T17:28:22.389Z,59.63
2023-04-07T17:29:22.371Z,59.92
2023-04-07T17:30:22.351Z,59.79
2023-04-07T17:31:22.391Z,59.70
2023-04-07T17:32:22.412Z,59.99
2023-04-07T17:33:22.302Z,59.70
2023-04-07T17:34:22.289Z,59.79
2023-04-07T17:35:22.285Z,59.70
2023-04-07T17:36:22.265Z,60.27
2023-04-07T17:37:22.251Z,59.99
2023-04-07T17:38:22.233Z,60.27
2023-04-07T17:39:22.232Z,60.17
2023-04-07T17:40:22.217Z,60.08
2023-04-07T17:41:22.187Z,60.08
2023-04-07T17:42:22.183Z,60.08
2023-04-07T17:43:22.164Z,60.08
2023-04-07T17:44:22.150Z,60.17
2023-04-07T17:45:22.132Z,60.65
2023-04-07T17:46:22.161Z,60.81
2023-04-07T17:47:22.116Z,60.72
2023-04-07T17:48:22.125Z,61.29
2023-04-07T17:49:22.077Z,61.48
2023-04-07T17:50:22.069Z,61.83
2023-04-07T17:51:22.047Z,61.93
2023-04-07T17:52:22.032Z,62.21
2023-04-07T17:53:22.017Z,62.18
2023-04-07T17:54:22.019Z,62.18
2023-04-07T17:55:21.990Z,62.65
2023-04-07T17:56:21.990Z,63.04
2023-04-07T17:57:21.960Z,62.72
2023-04-07T17:58:21.966Z,63.01
2023-04-07T17:59:21.945Z,63.29
2023-04-07T18:00:21.924Z,63.57
2023-04-07T18:01:21.909Z,63.10
2023-04-07T18:02:22.027Z,63.73
2023-04-07T18:03:22.005Z,63.76
2023-04-07T18:04:22.017Z,63.92
2023-04-07T18:05:21.846Z,63.73
2023-04-07T18:06:21.855Z,63.73
2023-04-07T18:07:21.824Z,63.45
2023-04-07T18:08:21.802Z,63.83
2023-04-07T18:09:21.786Z,63.73
2023-04-07T18:10:21.784Z,64.46
2023-04-07T18:11:21.772Z,64.37
2023-04-07T18:12:21.749Z,64.08
2023-04-07T18:13:21.733Z,64.08
2023-04-07T18:14:21.716Z,64.27
2023-04-07T18:15:21.718Z,64.46
2023-04-07T18:16:22.432Z,64.18
2023-04-07T18:17:21.679Z,64.37
2023-04-07T18:18:21.655Z,64.18
2023-04-07T18:19:21.639Z,64.08
2023-04-07T18:20:21.643Z,64.08
2023-04-07T18:21:21.611Z,63.79
2023-04-07T18:22:21.601Z,64.27
2023-04-07T18:23:21.580Z,64.08
2023-04-07T18:24:21.568Z,64.27
2023-04-07T18:25:21.547Z,64.84
2023-04-07T18:26:21.533Z,64.62
2023-04-07T18:27:21.518Z,64.53
2023-04-07T18:28:21.507Z,65.00
2023-04-07T18:29:21.484Z,64.81
2023-04-07T18:30:21.482Z,65.00
2023-04-07T18:31:21.525Z,64.53
2023-04-07T18:32:21.442Z,65.09
2023-04-07T18:33:21.424Z,65.47
2023-04-07T18:34:21.412Z,64.72
2023-04-07T18:35:21.418Z,65.19
2023-04-07T18:36:21.393Z,65.28
2023-04-07T18:37:21.370Z,65.00
2023-04-07T18:38:21.396Z,65.19
2023-04-07T18:39:21.342Z,65.44
2023-04-07T18:40:21.317Z,65.63
2023-04-07T18:41:21.315Z,65.35
2023-04-07T18:42:21.286Z,65.44
2023-04-07T18:43:21.273Z,65.25
2023-04-07T18:44:21.372Z,65.44
2023-04-07T18:45:21.291Z,65.44
2023-04-07T18:46:21.285Z,65.25
2023-04-07T18:47:21.283Z,65.09
2023-04-07T18:48:21.195Z,65.44
2023-04-07T18:49:21.179Z,65.16
2023-04-07T18:50:21.168Z,64.90
2023-04-07T18:51:21.146Z,64.87
2023-04-07T18:52:21.132Z,64.62
2023-04-07T18:53:21.113Z,64.62
2023-04-07T18:54:21.119Z,64.72
2023-04-07T18:55:21.094Z,64.90
2023-04-07T18:56:21.092Z,64.62
2023-04-07T18:57:21.074Z,64.34
2023-04-07T18:58:21.034Z,64.62
2023-04-07T18:59:21.023Z,64.05
2023-04-07T19:00:21.048Z,64.24
2023-04-07T19:01:21.109Z,64.14
2023-04-07T19:02:21.168Z,64.05
2023-04-07T19:03:21.108Z,64.24
2023-04-07T19:04:20.989Z,63.57
2023-04-07T19:05:23.011Z,63.29
2023-04-07T19:06:20.913Z,63.67
2023-04-07T19:07:20.899Z,63.29
2023-04-07T19:08:20.887Z,63.95
2023-04-07T19:09:20.864Z,63.48
2023-04-07T19:10:20.856Z,63.48
2023-04-07T19:11:20.831Z,63.95
2023-04-07T19:12:20.839Z,64.24
2023-04-07T19:13:20.808Z,63.76
2023-04-07T19:14:20.788Z,64.05
2023-04-07T19:15:20.783Z,64.18
2023-04-07T19:16:20.785Z,64.27
2023-04-07T19:17:20.772Z,64.18
2023-04-07T19:18:20.726Z,64.46
2023-04-07T19:19:20.708Z,64.56
2023-04-07T19:20:20.695Z,64.53
2023-04-07T19:21:20.670Z,64.27
2023-04-07T19:22:20.671Z,64.37
2023-04-07T19:23:20.643Z,63.95
2023-04-07T19:24:20.633Z,64.62
2023-04-07T19:25:20.615Z,64.24
2023-04-07T19:26:20.596Z,64.18
2023-04-07T19:27:20.593Z,64.53
2023-04-07T19:28:20.574Z,64.53
2023-04-07T19:29:20.568Z,64.34
2023-04-07T19:30:20.543Z,64.90
2023-04-07T19:31:20.550Z,64.53
2023-04-07T19:32:20.510Z,64.62
2023-04-07T19:33:20.489Z,64.81
2023-04-07T19:34:20.480Z,64.56
2023-04-07T19:35:20.503Z,64.81
2023-04-07T19:36:20.445Z,65.03
2023-04-07T19:37:20.422Z,65.13
2023-04-07T19:38:20.410Z,64.81
2023-04-07T19:39:20.396Z,64.94
2023-04-07T19:40:20.391Z,64.94
2023-04-07T19:41:20.389Z,64.94
2023-04-07T19:42:20.377Z,64.65
2023-04-07T19:43:20.326Z,64.84
2023-04-07T19:44:20.332Z,64.65
2023-04-07T19:45:20.341Z,64.75
2023-04-07T19:46:20.365Z,65.03
2023-04-07T19:47:20.285Z,65.13
2023-04-07T19:48:20.256Z,64.94
2023-04-07T19:49:20.233Z,64.94
2023-04-07T19:50:20.223Z,64.65
2023-04-07T19:51:20.218Z,64.46
2023-04-07T19:52:20.205Z,64.65
2023-04-07T19:53:20.174Z,64.56
2023-04-07T19:54:20.154Z,64.46
2023-04-07T19:55:20.141Z,64.56
2023-04-07T19:56:20.121Z,64.56
2023-04-07T19:57:20.118Z,64.65
2023-04-07T19:58:20.093Z,64.94
2023-04-07T19:59:20.095Z,64.94
2023-04-07T20:00:20.068Z,65.03
2023-04-07T20:01:20.074Z,65.13
2023-04-07T20:02:20.734Z,64.94
2023-04-07T20:03:20.189Z,65.13
2023-04-07T20:04:20.017Z,65.16
2023-04-07T20:05:20.047Z,64.97
2023-04-07T20:06:19.965Z,64.78
2023-04-07T20:07:19.952Z,64.50
2023-04-07T20:08:19.944Z,65.06
2023-04-07T20:09:19.933Z,65.35
2023-04-07T20:10:19.904Z,64.87
2023-04-07T20:11:19.890Z,64.97
2023-04-07T20:12:19.876Z,65.16
2023-04-07T20:13:19.860Z,64.97
2023-04-07T20:14:19.843Z,64.50
2023-04-07T20:15:19.873Z,64.59
2023-04-07T20:16:19.886Z,64.97
2023-04-07T20:17:19.812Z,65.54
2023-04-07T20:18:19.786Z,65.25
2023-04-07T20:19:19.771Z,65.22
2023-04-07T20:20:19.754Z,65.51
2023-04-07T20:21:19.792Z,65.89
2023-04-07T20:22:19.721Z,65.89
2023-04-07T20:23:19.706Z,65.89
2023-04-07T20:24:19.701Z,66.05
2023-04-07T20:25:19.679Z,66.52
2023-04-07T20:26:19.668Z,66.71
2023-04-07T20:27:19.652Z,66.61
2023-04-07T20:28:19.631Z,66.80
2023-04-07T20:29:21.111Z,66.71
2023-04-07T20:30:19.595Z,66.90
2023-04-07T20:31:19.901Z,67.09
2023-04-07T20:32:19.565Z,67.15
2023-04-07T20:33:19.551Z,66.96
2023-04-07T20:34:19.532Z,67.44
2023-04-07T20:35:19.549Z,67.53
2023-04-07T20:36:19.521Z,67.72
2023-04-07T20:37:19.497Z,67.63
2023-04-07T20:38:19.486Z,67.44
2023-04-07T20:39:19.458Z,67.53
2023-04-07T20:40:19.471Z,67.44
2023-04-07T20:41:19.428Z,67.63
2023-04-07T20:42:19.443Z,67.53
2023-04-07T20:43:19.428Z,67.44
2023-04-07T20:44:19.378Z,67.34
2023-04-07T20:45:19.360Z,67.34
2023-04-07T20:46:19.449Z,67.50
2023-04-07T20:47:19.339Z,67.79
2023-04-07T20:48:19.311Z,67.59
2023-04-07T20:49:19.312Z,67.69
2023-04-07T20:50:19.283Z,68.26
2023-04-07T20:51:19.268Z,67.69
2023-04-07T20:52:19.249Z,67.79
2023-04-07T20:53:19.234Z,67.59
2023-04-07T20:54:19.230Z,67.79
2023-04-07T20:55:19.203Z,67.69
2023-04-07T20:56:19.182Z,68.07
2023-04-07T20:57:19.169Z,67.79
2023-04-07T20:58:19.158Z,67.88
2023-04-07T20:59:19.139Z,67.79
2023-04-07T21:00:19.176Z,67.69
2023-04-07T21:01:19.121Z,67.59
2023-04-07T21:02:19.173Z,67.69
2023-04-07T21:03:19.124Z,67.75
2023-04-07T21:04:19.182Z,68.13
2023-04-07T21:05:19.045Z,68.04
2023-04-07T21:06:19.023Z,68.04
2023-04-07T21:07:19.010Z,68.04
2023-04-07T21:08:18.998Z,68.04
2023-04-07T21:09:18.975Z,67.94
2023-04-07T21:10:18.957Z,68.23
2023-04-07T21:11:19.058Z,68.23
2023-04-07T21:12:18.931Z,67.65
2023-04-07T21:13:18.921Z,67.94
2023-04-07T21:14:18.917Z,67.50
2023-04-07T21:15:18.874Z,67.50
2023-04-07T21:16:18.870Z,67.79
2023-04-07T21:17:18.846Z,67.59
2023-04-07T21:18:19.382Z,67.02
2023-04-07T21:19:18.822Z,66.93
2023-04-07T21:20:18.797Z,67.02
2023-04-07T21:21:18.773Z,67.12
2023-04-07T21:22:18.765Z,67.12
2023-04-07T21:23:18.740Z,67.02
2023-04-07T21:24:18.734Z,67.31
2023-04-07T21:25:18.705Z,66.64
2023-04-07T21:26:18.697Z,66.64
2023-04-07T21:27:18.671Z,66.55
2023-04-07T21:28:18.660Z,66.64
2023-04-07T21:29:18.642Z,66.77
2023-04-07T21:30:18.623Z,66.96
2023-04-07T21:31:18.648Z,66.96
2023-04-07T21:32:18.669Z,66.67
2023-04-07T21:33:18.572Z,66.67
2023-04-07T21:34:18.555Z,66.49
2023-04-07T21:35:18.612Z,67.06
2023-04-07T21:36:19.008Z,66.87
2023-04-07T21:37:18.512Z,66.30
2023-04-07T21:38:18.491Z,66.87
2023-04-07T21:39:18.481Z,66.39
2023-04-07T21:40:18.463Z,66.39
2023-04-07T21:41:18.448Z,66.77
2023-04-07T21:42:18.458Z,66.67
2023-04-07T21:43:18.423Z,66.87
2023-04-07T21:44:18.392Z,66.87
2023-04-07T21:45:18.386Z,67.15
2023-04-07T21:46:18.431Z,67.19
2023-04-07T21:47:18.356Z,67.00
2023-04-07T21:48:18.332Z,67.00
2023-04-07T21:49:18.311Z,66.52
2023-04-07T21:50:18.295Z,66.42
2023-04-07T21:51:18.275Z,67.00
2023-04-07T21:52:18.262Z,66.80
2023-04-07T21:53:18.246Z,66.71
2023-04-07T21:54:18.237Z,66.52
2023-04-07T21:55:18.214Z,66.61
2023-04-07T21:56:18.201Z,66.71
2023-04-07T21:57:18.283Z,66.80
2023-04-07T21:58:18.162Z,66.71
2023-04-07T21:59:18.156Z,66.80
2023-04-07T22:00:18.155Z,66.61
2023-04-07T22:01:18.138Z,66.71
2023-04-07T22:02:18.148Z,67.28
2023-04-07T22:03:18.173Z,67.38
2023-04-07T22:04:18.120Z,67.19
2023-04-07T22:05:18.051Z,67.09
2023-04-07T22:06:18.033Z,67.09
2023-04-07T22:07:18.022Z,67.38
2023-04-07T22:08:18.005Z,67.19
2023-04-07T22:09:17.987Z,67.00
2023-04-07T22:10:17.964Z,66.90
2023-04-07T22:11:17.957Z,67.09
2023-04-07T22:12:17.942Z,66.90
2023-04-07T22:13:17.929Z,67.09
2023-04-07T22:14:17.914Z,67.28
2023-04-07T22:15:17.903Z,67.09
2023-04-07T22:16:17.952Z,66.90
2023-04-07T22:17:17.885Z,67.00
2023-04-07T22:18:18.809Z,67.00
2023-04-07T22:19:18.264Z,67.09
2023-04-07T22:20:17.848Z,67.00
2023-04-07T22:21:17.791Z,67.09
2023-04-07T22:22:17.777Z,67.00
2023-04-07T22:23:17.776Z,67.00
2023-04-07T22:24:17.752Z,67.00
2023-04-07T22:25:17.735Z,67.47
2023-04-07T22:26:17.709Z,67.00
2023-04-07T22:27:17.701Z,67.09
2023-04-07T22:28:17.685Z,66.80
2023-04-07T22:29:17.662Z,67.03
2023-04-07T22:30:17.645Z,66.90
2023-04-07T22:31:17.676Z,67.13
2023-04-07T22:32:17.655Z,67.03
2023-04-07T22:33:17.606Z,67.13
2023-04-07T22:34:17.592Z,67.13
2023-04-07T22:35:17.573Z,67.03
2023-04-07T22:36:17.548Z,67.13
2023-04-07T22:37:17.535Z,67.13
2023-04-07T22:38:17.525Z,67.13
2023-04-07T22:39:17.521Z,66.94
2023-04-07T22:40:17.509Z,66.94
2023-04-07T22:41:17.478Z,66.94
2023-04-07T22:42:17.452Z,66.84
2023-04-07T22:43:17.464Z,67.32
2023-04-07T22:44:17.422Z,67.60
2023-04-07T22:45:17.409Z,66.94
2023-04-07T22:46:17.405Z,67.03
2023-04-07T22:47:17.376Z,67.50
2023-04-07T22:48:17.369Z,67.88
2023-04-07T22:49:17.344Z,67.60
2023-04-07T22:50:17.325Z,67.60
2023-04-07T22:51:17.309Z,67.69
2023-04-07T22:52:17.292Z,67.41
2023-04-07T22:53:17.281Z,67.60
2023-04-07T22:54:17.261Z,67.50
2023-04-07T22:55:17.246Z,67.32
2023-04-07T22:56:17.229Z,67.32
2023-04-07T22:57:17.218Z,67.41
2023-04-07T22:58:17.198Z,67.41
2023-04-07T22:59:17.201Z,67.60
2023-04-07T23:00:17.174Z,67.32
2023-04-07T23:01:17.198Z,67.41
2023-04-07T23:02:17.203Z,67.60
2023-04-07T23:03:17.241Z,67.88
2023-04-07T23:04:17.113Z,68.07
2023-04-07T23:05:17.090Z,67.69
2023-04-07T23:06:17.073Z,67.69
2023-04-07T23:07:17.072Z,68.07
2023-04-07T23:08:17.046Z,68.36
2023-04-07T23:09:17.029Z,67.79
2023-04-07T23:10:17.009Z,67.69
2023-04-07T23:11:16.992Z,68.46
2023-04-07T23:12:16.974Z,67.88
2023-04-07T23:13:16.957Z,68.07
2023-04-07T23:14:16.943Z,68.27
2023-04-07T23:15:16.931Z,68.07
2023-04-07T23:16:16.970Z,68.07
2023-04-07T23:17:16.894Z,67.88
2023-04-07T23:18:16.880Z,68.17
2023-04-07T23:19:16.880Z,68.07
2023-04-07T23:20:16.891Z,68.17
2023-04-07T23:21:16.835Z,67.98
2023-04-07T23:22:16.826Z,68.17
2023-04-07T23:23:16.832Z,68.17
2023-04-07T23:24:16.802Z,67.88
2023-04-07T23:25:16.775Z,68.17
2023-04-07T23:26:16.761Z,68.17
2023-04-07T23:27:16.773Z,68.36
2023-04-07T23:28:16.727Z,68.17
2023-04-07T23:29:16.723Z,68.17
2023-04-07T23:30:16.690Z,68.07
2023-04-07T23:31:16.710Z,68.17
2023-04-07T23:32:16.713Z,68.07
2023-04-07T23:33:16.656Z,68.27
2023-04-07T23:34:16.630Z,67.98
2023-04-07T23:35:16.614Z,68.17
2023-04-07T23:36:16.596Z,68.17
2023-04-07T23:37:16.580Z,67.88
2023-04-07T23:38:16.565Z,67.98
2023-04-07T23:39:16.560Z,67.98
2023-04-07T23:40:16.539Z,67.88
2023-04-07T23:41:16.520Z,67.88
2023-04-07T23:42:16.505Z,67.88
2023-04-07T23:43:16.510Z,67.79
2023-04-07T23:44:16.471Z,67.98
2023-04-07T23:45:18.150Z,68.17
2023-04-07T23:46:16.521Z,68.07
2023-04-07T23:47:16.438Z,68.07
2023-04-07T23:48:16.416Z,68.17
2023-04-07T23:49:16.403Z,67.88
2023-04-07T23:50:16.391Z,67.98
2023-04-07T23:51:16.381Z,67.88
2023-04-07T23:52:16.355Z,67.88
2023-04-07T23:53:16.334Z,67.98
2023-04-07T23:54:16.313Z,67.88
2023-04-07T23:55:16.319Z,67.69
2023-04-07T23:56:16.283Z,67.79
2023-04-07T23:57:16.268Z,67.69
2023-04-07T23:58:16.250Z,68.07
2023-04-07T23:59:16.234Z,68.07
